createdAt,value
2023-03-31T00:01:53.114Z,11.26
2023-03-31T00:04:24.424Z,11.23
2023-03-31T00:06:54.647Z,11.09
2023-03-31T00:09:24.892Z,11.05
2023-03-31T00:11:52.459Z,11.07
2023-03-31T00:14:20.916Z,11.09
2023-03-31T00:16:47.666Z,11.14
2023-03-31T00:19:21.423Z,11.16
2023-03-31T00:21:49.160Z,11.19
2023-03-31T00:24:16.544Z,11.15
2023-03-31T00:26:43.850Z,11.37
2023-03-31T00:29:13.017Z,11.25
2023-03-31T00:31:40.131Z,11.21
2023-03-31T00:34:07.461Z,11.26
2023-03-31T00:36:36.978Z,11.18
2023-03-31T00:39:09.703Z,11.13
2023-03-31T00:41:39.415Z,11.35
2023-03-31T00:44:19.138Z,11.37
2023-03-31T00:46:55.721Z,11.54
2023-03-31T00:49:24.769Z,11.57
2023-03-31T00:51:52.566Z,11.45
2023-03-31T00:54:21.683Z,11.29
2023-03-31T00:56:49.622Z,11.16
2023-03-31T00:59:16.887Z,11.12
2023-03-31T01:01:45.988Z,10.90
2023-03-31T01:04:14.284Z,10.81
2023-03-31T01:06:50.435Z,10.76
2023-03-31T01:09:17.170Z,10.73
2023-03-31T01:11:46.480Z,10.69
2023-03-31T01:14:13.360Z,10.54
2023-03-31T01:16:40.137Z,10.53
2023-03-31T01:19:12.938Z,10.41
2023-03-31T01:21:53.924Z,10.35
2023-03-31T01:24:35.795Z,10.25
2023-03-31T01:27:46.591Z,10.20
2023-03-31T01:30:34.975Z,10.11
2023-03-31T01:33:14.586Z,10.00
2023-03-31T01:36:13.832Z,9.89
2023-03-31T01:39:07.338Z,9.71
2023-03-31T01:42:02.596Z,9.62
2023-03-31T01:44:44.583Z,9.47
2023-03-31T01:47:22.924Z,9.32
2023-03-31T01:50:03.436Z,9.21
2023-03-31T01:52:56.608Z,9.12
2023-03-31T01:55:25.509Z,9.04
2023-03-31T01:58:00.363Z,8.91
2023-03-31T02:00:34.007Z,8.89
2023-03-31T02:03:12.916Z,8.76
2023-03-31T02:05:50.466Z,8.62
2023-03-31T02:08:23.204Z,8.62
2023-03-31T02:10:52.194Z,8.45
2023-03-31T02:13:19.201Z,8.39
2023-03-31T02:15:48.414Z,8.31
2023-03-31T02:18:18.711Z,8.24
2023-03-31T02:20:48.460Z,8.13
2023-03-31T02:23:18.002Z,8.04
2023-03-31T02:25:51.561Z,7.97
2023-03-31T02:28:24.202Z,7.90
2023-03-31T02:31:15.534Z,7.88
2023-03-31T02:33:42.360Z,8.00
2023-03-31T02:36:09.657Z,8.12
2023-03-31T02:38:42.008Z,8.01
2023-03-31T02:41:09.213Z,7.94
2023-03-31T02:43:36.184Z,7.92
2023-03-31T02:46:03.144Z,7.97
2023-03-31T02:48:50.756Z,7.90
2023-03-31T02:51:42.441Z,8.02
2023-03-31T02:54:23.212Z,8.09
2023-03-31T02:57:26.349Z,8.09
2023-03-31T03:00:14.548Z,8.06
2023-03-31T03:03:21.385Z,8.12
2023-03-31T03:05:54.972Z,8.02
2023-03-31T03:09:13.057Z,7.86
2023-03-31T03:11:51.674Z,7.82
2023-03-31T03:14:30.722Z,7.70
2023-03-31T03:17:10.984Z,7.70
2023-03-31T03:19:37.856Z,7.73
2023-03-31T03:22:04.717Z,7.58
2023-03-31T03:24:34.503Z,7.51
2023-03-31T03:27:01.323Z,7.40
2023-03-31T03:29:28.555Z,7.36
2023-03-31T03:31:55.557Z,7.23
2023-03-31T03:34:22.288Z,7.18
2023-03-31T03:36:49.041Z,7.22
2023-03-31T03:39:15.961Z,7.16
2023-03-31T03:41:42.651Z,7.14
2023-03-31T03:44:09.364Z,7.07
2023-03-31T03:46:36.038Z,7.05
2023-03-31T03:49:02.814Z,6.94
2023-03-31T03:51:29.544Z,6.90
2023-03-31T03:53:56.222Z,6.86
2023-03-31T03:56:23.173Z,6.78
2023-03-31T03:58:51.022Z,6.78
2023-03-31T04:01:18.372Z,6.74
2023-03-31T04:03:45.528Z,6.72
2023-03-31T04:06:12.186Z,6.63
2023-03-31T04:08:38.986Z,6.57
2023-03-31T04:11:14.101Z,6.53
2023-03-31T04:13:41.971Z,6.46
2023-03-31T04:16:08.804Z,6.32
2023-03-31T04:18:37.345Z,6.32
2023-03-31T04:21:04.336Z,6.30
2023-03-31T04:23:46.975Z,6.25
2023-03-31T04:26:14.726Z,6.20
2023-03-31T04:28:43.030Z,6.14
2023-03-31T04:31:10.895Z,6.12
2023-03-31T04:33:40.524Z,6.14
2023-03-31T04:36:26.115Z,6.19
2023-03-31T04:38:55.039Z,6.26
2023-03-31T04:41:27.855Z,6.36
2023-03-31T04:43:55.815Z,6.41
2023-03-31T04:46:44.962Z,6.53
2023-03-31T04:49:11.793Z,6.63
2023-03-31T04:51:38.454Z,6.75
2023-03-31T04:54:07.772Z,6.83
2023-03-31T04:56:34.442Z,6.95
2023-03-31T04:59:01.252Z,7.03
2023-03-31T05:01:28.254Z,7.18
2023-03-31T05:03:55.345Z,7.23
2023-03-31T05:06:22.000Z,7.35
2023-03-31T05:08:48.683Z,7.44
2023-03-31T05:11:15.569Z,7.46
2023-03-31T05:13:42.420Z,7.63
2023-03-31T05:16:11.067Z,7.82
2023-03-31T05:18:38.363Z,8.02
2023-03-31T05:21:15.578Z,8.20
2023-03-31T05:23:42.864Z,8.38
2023-03-31T05:26:09.745Z,8.76
2023-03-31T05:28:37.180Z,8.96
2023-03-31T05:31:04.735Z,9.19
2023-03-31T05:33:31.774Z,9.47
2023-03-31T05:36:00.408Z,9.63
2023-03-31T05:38:31.766Z,9.84
2023-03-31T05:40:58.698Z,10.03
2023-03-31T05:43:25.718Z,10.20
2023-03-31T05:45:52.544Z,10.19
2023-03-31T05:48:19.534Z,10.12
2023-03-31T05:50:46.319Z,10.12
2023-03-31T05:53:12.983Z,10.20
2023-03-31T05:55:40.031Z,10.41
2023-03-31T05:58:06.988Z,10.64
2023-03-31T06:00:34.035Z,10.74
2023-03-31T06:03:00.879Z,11.04
2023-03-31T06:05:27.844Z,11.27
2023-03-31T06:07:55.650Z,11.51
2023-03-31T06:10:22.343Z,11.75
2023-03-31T06:12:49.073Z,11.99
2023-03-31T06:15:16.285Z,12.07
2023-03-31T06:17:43.103Z,12.27
2023-03-31T06:20:20.432Z,12.19
2023-03-31T06:22:51.256Z,12.15
2023-03-31T06:25:18.001Z,12.10
2023-03-31T06:27:44.715Z,12.15
2023-03-31T06:30:12.044Z,12.40
2023-03-31T06:32:38.912Z,12.66
2023-03-31T06:35:06.109Z,12.94
2023-03-31T06:37:32.870Z,13.21
2023-03-31T06:39:59.628Z,13.38
2023-03-31T06:42:26.334Z,13.36
2023-03-31T06:44:53.107Z,13.34
2023-03-31T06:47:19.876Z,13.34
2023-03-31T06:49:46.617Z,13.39
2023-03-31T06:52:13.361Z,13.35
2023-03-31T06:54:40.200Z,13.27
2023-03-31T06:57:06.911Z,13.16
2023-03-31T06:59:33.601Z,13.11
2023-03-31T07:02:00.838Z,13.08
2023-03-31T07:04:27.728Z,13.17
2023-03-31T07:06:54.435Z,13.45
2023-03-31T07:09:23.535Z,13.50
2023-03-31T07:11:50.822Z,13.64
2023-03-31T07:14:17.534Z,13.73
2023-03-31T07:16:44.449Z,13.91
2023-03-31T07:19:11.440Z,14.05
2023-03-31T07:21:38.161Z,14.45
2023-03-31T07:24:07.078Z,14.68
2023-03-31T07:26:33.876Z,14.98
2023-03-31T07:29:00.625Z,15.28
2023-03-31T07:31:27.442Z,15.77
2023-03-31T07:33:54.222Z,16.16
2023-03-31T07:36:22.021Z,16.51
2023-03-31T07:38:49.959Z,16.63
2023-03-31T07:41:19.343Z,16.87
2023-03-31T07:43:46.550Z,16.99
2023-03-31T07:46:25.120Z,17.12
2023-03-31T07:48:53.352Z,17.36
2023-03-31T07:51:22.641Z,17.72
2023-03-31T07:53:49.636Z,18.19
2023-03-31T07:56:17.091Z,18.57
2023-03-31T07:58:44.429Z,18.75
2023-03-31T08:01:17.561Z,18.83
2023-03-31T08:03:46.449Z,18.97
2023-03-31T08:06:18.876Z,19.19
2023-03-31T08:08:45.681Z,19.30
2023-03-31T08:11:12.370Z,19.36
2023-03-31T08:13:39.105Z,19.49
2023-03-31T08:16:06.457Z,19.65
2023-03-31T08:18:33.446Z,19.83
2023-03-31T08:21:00.139Z,19.85
2023-03-31T08:23:27.023Z,19.72
2023-03-31T08:25:53.736Z,19.68
2023-03-31T08:28:20.498Z,19.69
2023-03-31T08:30:47.262Z,19.65
2023-03-31T08:33:14.304Z,19.65
2023-03-31T08:35:41.140Z,19.60
2023-03-31T08:38:07.859Z,19.53
2023-03-31T08:40:34.572Z,19.41
2023-03-31T08:43:19.270Z,19.29
2023-03-31T08:45:47.369Z,19.31
2023-03-31T08:48:38.953Z,19.30
2023-03-31T08:51:14.700Z,19.40
2023-03-31T08:53:44.525Z,19.42
2023-03-31T08:56:17.900Z,19.27
2023-03-31T08:58:47.147Z,19.05
2023-03-31T09:01:31.302Z,19.08
2023-03-31T09:04:27.332Z,19.00
2023-03-31T09:07:10.343Z,18.89
2023-03-31T09:09:38.821Z,18.82
2023-03-31T09:12:10.798Z,18.77
2023-03-31T09:15:09.104Z,18.75
2023-03-31T09:17:45.259Z,18.68
2023-03-31T09:20:31.896Z,18.70
2023-03-31T09:23:19.098Z,18.67
2023-03-31T09:25:46.713Z,18.64
2023-03-31T09:28:20.466Z,18.62
2023-03-31T09:30:52.283Z,18.64
2023-03-31T09:33:28.470Z,18.75
2023-03-31T09:35:55.317Z,18.83
2023-03-31T09:38:22.126Z,19.03
2023-03-31T09:40:49.065Z,19.23
2023-03-31T09:43:23.031Z,19.47
2023-03-31T09:46:07.887Z,19.55
2023-03-31T09:48:36.636Z,19.52
2023-03-31T09:51:18.489Z,19.43
2023-03-31T09:54:00.164Z,19.39
2023-03-31T09:56:54.046Z,19.34
2023-03-31T09:59:34.789Z,19.25
2023-03-31T10:02:23.031Z,19.14
2023-03-31T10:04:50.172Z,19.16
2023-03-31T10:07:21.801Z,19.11
2023-03-31T10:09:48.946Z,19.02
2023-03-31T10:12:26.744Z,18.92
2023-03-31T10:14:55.141Z,18.89
2023-03-31T10:17:23.807Z,18.81
2023-03-31T10:19:54.852Z,18.84
2023-03-31T10:22:21.632Z,18.87
2023-03-31T10:24:50.084Z,19.03
2023-03-31T10:27:28.651Z,19.10
2023-03-31T10:30:00.106Z,19.44
2023-03-31T10:32:29.062Z,19.76
2023-03-31T10:34:57.365Z,20.13
2023-03-31T10:37:26.518Z,20.45
2023-03-31T10:40:02.351Z,20.88
2023-03-31T10:42:29.113Z,21.20
2023-03-31T10:45:36.548Z,21.24
2023-03-31T10:48:04.974Z,21.14
2023-03-31T10:50:36.618Z,21.02
2023-03-31T10:53:11.356Z,20.96
2023-03-31T10:55:44.725Z,20.98
2023-03-31T10:58:33.259Z,20.75
2023-03-31T11:01:29.938Z,20.48
2023-03-31T11:04:09.747Z,20.15
2023-03-31T11:06:49.896Z,19.85
2023-03-31T11:09:46.475Z,19.83
2023-03-31T11:12:21.894Z,19.79
2023-03-31T11:15:16.581Z,19.70
2023-03-31T11:17:55.854Z,19.78
2023-03-31T11:20:35.506Z,19.95
2023-03-31T11:23:24.038Z,20.08
2023-03-31T11:26:06.621Z,20.15
2023-03-31T11:28:58.296Z,20.31
2023-03-31T11:31:37.408Z,20.46
2023-03-31T11:34:32.498Z,20.58
2023-03-31T11:37:13.364Z,20.91
2023-03-31T11:39:54.644Z,21.25
2023-03-31T11:42:32.123Z,21.22
2023-03-31T11:45:04.332Z,21.27
2023-03-31T11:47:35.101Z,21.12
2023-03-31T11:50:07.515Z,21.32
2023-03-31T11:52:35.611Z,21.45
2023-03-31T11:55:15.699Z,21.28
2023-03-31T11:57:46.973Z,20.96
2023-03-31T12:00:20.898Z,20.99
2023-03-31T12:02:54.945Z,20.85
2023-03-31T12:05:23.041Z,21.05
2023-03-31T12:07:58.962Z,20.86
2023-03-31T12:10:36.010Z,21.06
2023-03-31T12:13:26.444Z,21.43
2023-03-31T12:16:02.972Z,21.81
2023-03-31T12:18:33.927Z,21.98
2023-03-31T12:21:03.500Z,22.17
2023-03-31T12:23:34.487Z,22.21
2023-03-31T12:26:36.415Z,22.13
2023-03-31T12:29:31.620Z,21.68
2023-03-31T12:32:03.948Z,21.31
2023-03-31T12:34:31.480Z,20.83
2023-03-31T12:37:32.269Z,20.50
2023-03-31T12:40:16.646Z,20.05
2023-03-31T12:42:59.593Z,19.77
2023-03-31T12:45:31.478Z,19.54
2023-03-31T12:47:58.216Z,19.84
2023-03-31T12:50:54.250Z,20.35
2023-03-31T12:53:44.886Z,20.99
2023-03-31T12:56:11.651Z,21.50
2023-03-31T12:58:41.692Z,22.00
2023-03-31T13:01:16.349Z,22.38
2023-03-31T13:04:21.626Z,22.71
2023-03-31T13:06:59.822Z,22.85
2023-03-31T13:09:47.070Z,22.88
2023-03-31T13:12:16.751Z,22.59
2023-03-31T13:14:45.633Z,22.67
2023-03-31T13:17:25.172Z,22.55
2023-03-31T13:19:52.457Z,22.15
2023-03-31T13:22:36.590Z,21.97
2023-03-31T13:25:31.447Z,21.79
2023-03-31T13:28:04.612Z,21.54
2023-03-31T13:30:37.189Z,21.47
2023-03-31T13:33:22.049Z,21.22
2023-03-31T13:35:57.697Z,20.97
2023-03-31T13:38:34.754Z,20.63
2023-03-31T13:41:13.643Z,20.59
2023-03-31T13:43:43.911Z,20.67
2023-03-31T13:46:32.329Z,20.78
2023-03-31T13:49:20.716Z,20.81
2023-03-31T13:51:58.419Z,20.94
2023-03-31T13:54:49.341Z,21.09
2023-03-31T13:57:36.032Z,21.04
2023-03-31T14:00:21.800Z,20.96
2023-03-31T14:03:12.894Z,20.77
2023-03-31T14:05:43.557Z,20.57
2023-03-31T14:08:12.865Z,20.45
2023-03-31T14:10:41.397Z,20.26
2023-03-31T14:13:12.291Z,20.21
2023-03-31T14:15:51.429Z,20.23
2023-03-31T14:18:38.702Z,20.16
2023-03-31T14:21:11.677Z,20.03
2023-03-31T14:23:41.387Z,19.92
2023-03-31T14:26:27.140Z,19.78
2023-03-31T14:29:19.701Z,19.77
2023-03-31T14:32:24.503Z,19.93
2023-03-31T14:35:03.939Z,19.98
2023-03-31T14:37:31.075Z,19.90
2023-03-31T14:39:59.089Z,19.81
2023-03-31T14:42:33.046Z,19.61
2023-03-31T14:45:04.870Z,19.42
2023-03-31T14:47:32.079Z,19.17
2023-03-31T14:50:06.378Z,18.97
2023-03-31T14:52:35.883Z,18.85
2023-03-31T14:55:02.623Z,18.71
2023-03-31T14:57:33.311Z,18.55
2023-03-31T15:00:02.470Z,18.48
2023-03-31T15:02:37.551Z,18.16
2023-03-31T15:05:07.829Z,18.16
2023-03-31T15:07:34.959Z,18.06
2023-03-31T15:10:02.622Z,17.95
2023-03-31T15:12:29.753Z,17.60
2023-03-31T15:15:00.406Z,17.00
2023-03-31T15:17:35.180Z,16.45
2023-03-31T15:20:04.945Z,16.04
2023-03-31T15:22:31.762Z,15.63
2023-03-31T15:24:58.537Z,15.54
2023-03-31T15:27:38.996Z,15.29
2023-03-31T15:30:07.816Z,14.99
2023-03-31T15:32:39.442Z,14.88
2023-03-31T15:35:21.169Z,14.53
2023-03-31T15:37:51.063Z,14.22
2023-03-31T15:40:21.912Z,14.17
2023-03-31T15:43:01.899Z,13.87
2023-03-31T15:45:55.057Z,13.46
2023-03-31T15:48:33.986Z,13.13
2023-03-31T15:51:22.893Z,12.95
2023-03-31T15:53:52.675Z,12.77
2023-03-31T15:56:27.300Z,12.60
2023-03-31T15:59:05.451Z,12.57
2023-03-31T16:02:00.001Z,12.57
2023-03-31T16:04:32.446Z,12.53
2023-03-31T16:07:07.661Z,12.48
2023-03-31T16:09:51.733Z,12.45
2023-03-31T16:12:28.924Z,12.39
2023-03-31T16:15:14.344Z,12.39
2023-03-31T16:17:57.444Z,12.43
2023-03-31T16:20:28.556Z,12.33
2023-03-31T16:22:58.923Z,12.36
2023-03-31T16:25:27.857Z,12.40
2023-03-31T16:27:57.148Z,12.35
2023-03-31T16:30:41.611Z,12.39
2023-03-31T16:33:14.401Z,12.39
2023-03-31T16:35:49.125Z,12.33
2023-03-31T16:38:16.734Z,12.31
2023-03-31T16:40:48.093Z,12.32
2023-03-31T16:43:23.012Z,12.31
2023-03-31T16:45:51.727Z,12.21
2023-03-31T16:48:19.896Z,12.30
2023-03-31T16:50:48.266Z,12.23
2023-03-31T16:53:16.760Z,12.15
2023-03-31T16:55:43.575Z,12.08
2023-03-31T16:58:12.052Z,12.15
2023-03-31T17:00:40.704Z,12.16
2023-03-31T17:03:08.926Z,12.13
2023-03-31T17:05:43.639Z,12.23
2023-03-31T17:08:11.439Z,12.23
2023-03-31T17:10:39.338Z,12.15
2023-03-31T17:13:06.838Z,12.14
2023-03-31T17:15:36.418Z,12.21
2023-03-31T17:18:04.710Z,12.24
2023-03-31T17:20:32.877Z,12.17
2023-03-31T17:22:59.936Z,12.18
2023-03-31T17:25:26.890Z,12.08
2023-03-31T17:27:55.879Z,12.25
2023-03-31T17:30:23.566Z,12.21
2023-03-31T17:32:51.561Z,12.23
2023-03-31T17:35:21.705Z,12.10
2023-03-31T17:37:50.696Z,12.13
2023-03-31T17:40:17.507Z,12.24
2023-03-31T17:42:44.803Z,12.17
2023-03-31T17:45:12.833Z,12.23
2023-03-31T17:47:39.942Z,12.22
2023-03-31T17:50:10.258Z,12.18
2023-03-31T17:52:37.372Z,12.19
2023-03-31T17:55:04.703Z,12.23
2023-03-31T17:57:32.187Z,12.27
2023-03-31T17:59:59.403Z,12.25
2023-03-31T18:02:26.129Z,12.34
2023-03-31T18:04:53.551Z,12.34
2023-03-31T18:07:23.220Z,12.28
2023-03-31T18:09:49.968Z,12.30
2023-03-31T18:12:16.792Z,12.24
2023-03-31T18:14:43.498Z,12.25
2023-03-31T18:17:14.835Z,12.35
2023-03-31T18:19:42.921Z,12.29
2023-03-31T18:22:09.964Z,12.22
2023-03-31T18:24:38.482Z,12.16
2023-03-31T18:27:05.771Z,12.21
2023-03-31T18:29:32.665Z,12.15
2023-03-31T18:31:59.532Z,12.17
2023-03-31T18:34:26.940Z,12.16
2023-03-31T18:36:54.100Z,12.20
2023-03-31T18:39:21.536Z,12.27
2023-03-31T18:41:48.991Z,12.31
2023-03-31T18:44:18.896Z,12.30
2023-03-31T18:46:46.234Z,12.45
2023-03-31T18:49:14.597Z,12.43
2023-03-31T18:51:41.352Z,12.40
2023-03-31T18:54:08.222Z,12.27
2023-03-31T18:56:34.906Z,12.25
2023-03-31T18:59:04.281Z,12.21
2023-03-31T19:01:32.765Z,12.23
2023-03-31T19:03:59.591Z,12.21
2023-03-31T19:06:26.869Z,12.19
2023-03-31T19:08:56.151Z,12.14
2023-03-31T19:11:24.001Z,12.15
2023-03-31T19:13:50.846Z,12.14
2023-03-31T19:16:18.713Z,12.09
2023-03-31T19:18:45.544Z,12.19
2023-03-31T19:21:12.341Z,12.12
2023-03-31T19:23:39.258Z,12.13
2023-03-31T19:26:05.960Z,12.33
2023-03-31T19:28:32.754Z,12.25
2023-03-31T19:30:59.820Z,12.12
2023-03-31T19:33:27.127Z,12.12
2023-03-31T19:35:54.265Z,12.09
2023-03-31T19:38:22.037Z,12.16
2023-03-31T19:40:49.154Z,12.08
2023-03-31T19:43:20.811Z,12.08
2023-03-31T19:45:50.608Z,12.06
2023-03-31T19:48:17.428Z,11.97
2023-03-31T19:50:54.092Z,11.84
2023-03-31T19:53:22.314Z,11.76
2023-03-31T19:55:57.446Z,11.72
2023-03-31T19:58:24.194Z,11.70
2023-03-31T20:00:52.838Z,11.67
2023-03-31T20:03:20.700Z,11.69
2023-03-31T20:05:48.069Z,11.54
2023-03-31T20:08:14.991Z,11.46
2023-03-31T20:10:42.546Z,11.43
2023-03-31T20:13:09.996Z,11.33
2023-03-31T20:15:37.866Z,11.30
2023-03-31T20:18:08.569Z,11.30
2023-03-31T20:20:35.458Z,11.23
2023-03-31T20:23:03.618Z,11.22
2023-03-31T20:25:30.736Z,11.07
2023-03-31T20:27:57.621Z,11.03
2023-03-31T20:30:24.464Z,11.11
2023-03-31T20:32:51.234Z,11.01
2023-03-31T20:35:18.310Z,10.91
2023-03-31T20:37:44.980Z,10.85
2023-03-31T20:40:12.226Z,10.84
2023-03-31T20:42:38.919Z,10.78
2023-03-31T20:45:06.747Z,10.84
2023-03-31T20:47:35.387Z,10.70
2023-03-31T20:50:02.706Z,10.65
2023-03-31T20:52:29.450Z,10.69
2023-03-31T20:54:56.434Z,10.72
2023-03-31T20:57:24.454Z,10.65
2023-03-31T20:59:51.740Z,10.66
2023-03-31T21:02:18.915Z,10.60
2023-03-31T21:04:46.761Z,10.63
2023-03-31T21:07:14.412Z,10.58
2023-03-31T21:09:41.309Z,10.51
2023-03-31T21:12:08.045Z,10.50
2023-03-31T21:14:35.026Z,10.56
2023-03-31T21:17:01.963Z,10.57
2023-03-31T21:19:28.891Z,10.58
2023-03-31T21:21:55.570Z,10.90
2023-03-31T21:24:22.599Z,11.07
2023-03-31T21:26:49.334Z,11.24
2023-03-31T21:29:16.144Z,11.33
2023-03-31T21:31:45.026Z,11.46
2023-03-31T21:34:11.908Z,11.50
2023-03-31T21:36:38.722Z,11.82
2023-03-31T21:39:05.917Z,12.05
2023-03-31T21:41:32.661Z,12.12
2023-03-31T21:44:01.763Z,12.23
2023-03-31T21:46:31.175Z,12.50
2023-03-31T21:48:58.163Z,12.36
2023-03-31T21:51:25.815Z,12.41
2023-03-31T21:53:55.550Z,12.41
2023-03-31T21:56:24.465Z,12.41
2023-03-31T21:58:51.225Z,12.58
2023-03-31T22:01:18.775Z,12.55
2023-03-31T22:03:46.008Z,12.48
2023-03-31T22:06:12.851Z,12.55
2023-03-31T22:08:40.020Z,12.70
2023-03-31T22:11:08.361Z,12.43
2023-03-31T22:13:36.029Z,12.52
2023-03-31T22:16:03.408Z,12.52
2023-03-31T22:18:30.709Z,12.35
2023-03-31T22:20:58.100Z,12.47
2023-03-31T22:23:24.791Z,12.34
2023-03-31T22:25:51.540Z,12.31
2023-03-31T22:28:18.418Z,12.32
2023-03-31T22:30:45.161Z,12.09
2023-03-31T22:33:11.953Z,12.09
2023-03-31T22:35:38.774Z,12.08
2023-03-31T22:38:06.516Z,12.04
2023-03-31T22:40:36.342Z,12.14
2023-03-31T22:43:03.233Z,12.05
2023-03-31T22:45:30.156Z,12.08
2023-03-31T22:47:57.111Z,12.00
2023-03-31T22:50:27.482Z,11.84
2023-03-31T22:52:54.323Z,12.12
2023-03-31T22:55:21.109Z,11.97
2023-03-31T22:57:49.866Z,11.96
2023-03-31T23:00:17.200Z,12.04
2023-03-31T23:02:43.961Z,12.00
2023-03-31T23:05:10.736Z,12.02
2023-03-31T23:07:38.126Z,11.84
2023-03-31T23:10:05.480Z,11.85
2023-03-31T23:12:32.150Z,12.02
2023-03-31T23:14:58.812Z,12.09
2023-03-31T23:17:25.510Z,11.83
2023-03-31T23:19:52.741Z,11.77
2023-03-31T23:22:19.455Z,11.88
2023-03-31T23:24:50.138Z,12.01
2023-03-31T23:27:16.845Z,11.79
2023-03-31T23:29:44.149Z,11.85
2023-03-31T23:32:11.132Z,11.75
2023-03-31T23:34:42.037Z,11.63
2023-03-31T23:37:12.827Z,11.68
2023-03-31T23:39:39.966Z,11.72
2023-03-31T23:42:07.422Z,11.86
2023-03-31T23:44:34.554Z,12.00
2023-03-31T23:47:02.236Z,11.90
2023-03-31T23:49:28.872Z,11.77
2023-03-31T23:51:55.610Z,11.81
2023-03-31T23:54:22.369Z,11.87
2023-03-31T23:56:49.573Z,11.84
2023-03-31T23:59:16.746Z,11.89
